sensor_id;sensor_type;location;lat;lon;timestamp;temperature;humidity
5394;DHT22;2720;52.396;10.064;2023-02-13T00:00:43;6.80;99.90
5394;DHT22;2720;52.396;10.064;2023-02-13T00:03:10;6.70;99.90
5394;DHT22;2720;52.396;10.064;2023-02-13T00:05:37;8.10;99.90
5394;DHT22;2720;52.396;10.064;2023-02-13T00:08:04;6.90;99.90
5394;DHT22;2720;52.396;10.064;2023-02-13T00:10:32;6.70;99.90
5394;DHT22;2720;52.396;10.064;2023-02-13T00:12:59;6.70;99.90
5394;DHT22;2720;52.396;10.064;2023-02-13T00:15:26;6.70;99.90
5394;DHT22;2720;52.396;10.064;2023-02-13T00:17:53;6.70;99.90
5394;DHT22;2720;52.396;10.064;2023-02-13T00:20:20;6.70;99.90
5394;DHT22;2720;52.396;10.064;2023-02-13T00:22:47;6.70;99.90
5394;DHT22;2720;52.396;10.064;2023-02-13T00:25:14;6.70;99.90
5394;DHT22;2720;52.396;10.064;2023-02-13T00:27:43;6.70;99.90
5394;DHT22;2720;52.396;10.064;2023-02-13T00:30:11;6.70;99.90
5394;DHT22;2720;52.396;10.064;2023-02-13T00:32:38;6.90;99.90
5394;DHT22;2720;52.396;10.064;2023-02-13T00:35:05;6.80;99.90
5394;DHT22;2720;52.396;10.064;2023-02-13T00:37:33;6.70;99.90
5394;DHT22;2720;52.396;10.064;2023-02-13T00:39:59;8.50;99.90
5394;DHT22;2720;52.396;10.064;2023-02-13T00:42:27;6.60;99.90
5394;DHT22;2720;52.396;10.064;2023-02-13T00:44:55;6.60;99.90
5394;DHT22;2720;52.396;10.064;2023-02-13T00:47:22;6.60;99.90
5394;DHT22;2720;52.396;10.064;2023-02-13T00:49:49;6.60;99.90
5394;DHT22;2720;52.396;10.064;2023-02-13T00:52:16;6.70;99.90
5394;DHT22;2720;52.396;10.064;2023-02-13T00:54:43;6.70;99.90
5394;DHT22;2720;52.396;10.064;2023-02-13T00:57:11;6.60;99.90
5394;DHT22;2720;52.396;10.064;2023-02-13T00:59:38;6.60;99.90
5394;DHT22;2720;52.396;10.064;2023-02-13T01:02:07;6.50;99.90
5394;DHT22;2720;52.396;10.064;2023-02-13T01:04:34;6.60;99.90
5394;DHT22;2720;52.396;10.064;2023-02-13T01:07:01;6.60;99.90
5394;DHT22;2720;52.396;10.064;2023-02-13T01:09:28;6.70;99.90
5394;DHT22;2720;52.396;10.064;2023-02-13T01:11:55;6.60;99.90
5394;DHT22;2720;52.396;10.064;2023-02-13T01:14:22;6.60;99.90
5394;DHT22;2720;52.396;10.064;2023-02-13T01:16:49;6.60;99.90
5394;DHT22;2720;52.396;10.064;2023-02-13T01:19:17;6.60;99.90
5394;DHT22;2720;52.396;10.064;2023-02-13T01:21:44;6.70;99.90
5394;DHT22;2720;52.396;10.064;2023-02-13T01:24:11;6.70;99.90
5394;DHT22;2720;52.396;10.064;2023-02-13T01:26:38;6.70;99.90
5394;DHT22;2720;52.396;10.064;2023-02-13T01:29:05;6.70;99.90
5394;DHT22;2720;52.396;10.064;2023-02-13T01:31:32;6.70;99.90
5394;DHT22;2720;52.396;10.064;2023-02-13T01:33:59;6.70;99.90
5394;DHT22;2720;52.396;10.064;2023-02-13T01:36:28;6.70;99.90
5394;DHT22;2720;52.396;10.064;2023-02-13T01:38:56;6.70;99.90
5394;DHT22;2720;52.396;10.064;2023-02-13T01:41:24;6.70;99.90
5394;DHT22;2720;52.396;10.064;2023-02-13T01:43:53;6.70;99.90
5394;DHT22;2720;52.396;10.064;2023-02-13T01:46:25;6.70;99.90
5394;DHT22;2720;52.396;10.064;2023-02-13T01:48:56;6.70;99.90
5394;DHT22;2720;52.396;10.064;2023-02-13T01:51:27;6.60;99.90
5394;DHT22;2720;52.396;10.064;2023-02-13T01:53:59;6.60;99.90
5394;DHT22;2720;52.396;10.064;2023-02-13T01:56:30;6.60;99.90
5394;DHT22;2720;52.396;10.064;2023-02-13T01:59:00;6.60;99.90
5394;DHT22;2720;52.396;10.064;2023-02-13T02:01:28;6.60;99.90
5394;DHT22;2720;52.396;10.064;2023-02-13T02:03:58;6.60;99.90
5394;DHT22;2720;52.396;10.064;2023-02-13T02:06:31;6.60;99.90
5394;DHT22;2720;52.396;10.064;2023-02-13T02:09:02;6.60;99.90
5394;DHT22;2720;52.396;10.064;2023-02-13T02:11:35;6.60;99.90
5394;DHT22;2720;52.396;10.064;2023-02-13T02:14:03;6.60;99.90
5394;DHT22;2720;52.396;10.064;2023-02-13T02:16:30;6.60;99.90
5394;DHT22;2720;52.396;10.064;2023-02-13T02:19:00;6.70;99.90
5394;DHT22;2720;52.396;10.064;2023-02-13T02:21:55;6.70;99.90
5394;DHT22;2720;52.396;10.064;2023-02-13T02:33:49;6.70;99.90
5394;DHT22;2720;52.396;10.064;2023-02-13T02:36:31;6.70;99.90
5394;DHT22;2720;52.396;10.064;2023-02-13T02:39:05;6.70;99.90
5394;DHT22;2720;52.396;10.064;2023-02-13T02:41:49;6.70;99.90
5394;DHT22;2720;52.396;10.064;2023-02-13T02:44:31;6.60;99.90
5394;DHT22;2720;52.396;10.064;2023-02-13T02:47:08;6.70;99.90
5394;DHT22;2720;52.396;10.064;2023-02-13T02:50:08;6.60;99.90
5394;DHT22;2720;52.396;10.064;2023-02-13T02:52:50;6.70;99.90
5394;DHT22;2720;52.396;10.064;2023-02-13T02:55:36;6.70;99.90
5394;DHT22;2720;52.396;10.064;2023-02-13T02:58:09;6.70;99.90
5394;DHT22;2720;52.396;10.064;2023-02-13T03:00:56;6.70;99.90
5394;DHT22;2720;52.396;10.064;2023-02-13T03:03:43;6.70;99.90
5394;DHT22;2720;52.396;10.064;2023-02-13T03:06:32;6.60;99.90
5394;DHT22;2720;52.396;10.064;2023-02-13T03:09:05;6.70;99.90
5394;DHT22;2720;52.396;10.064;2023-02-13T03:11:54;6.70;99.90
5394;DHT22;2720;52.396;10.064;2023-02-13T03:14:39;6.70;99.90
5394;DHT22;2720;52.396;10.064;2023-02-13T03:17:10;6.70;99.90
5394;DHT22;2720;52.396;10.064;2023-02-13T03:20:09;6.70;99.90
5394;DHT22;2720;52.396;10.064;2023-02-13T03:23:06;6.80;99.90
5394;DHT22;2720;52.396;10.064;2023-02-13T03:25:41;6.70;99.90
5394;DHT22;2720;52.396;10.064;2023-02-13T03:28:18;6.70;99.90
5394;DHT22;2720;52.396;10.064;2023-02-13T03:31:11;6.70;99.90
5394;DHT22;2720;52.396;10.064;2023-02-13T03:33:55;6.70;99.90
5394;DHT22;2720;52.396;10.064;2023-02-13T03:36:31;6.70;99.90
5394;DHT22;2720;52.396;10.064;2023-02-13T03:39:21;6.70;99.90
5394;DHT22;2720;52.396;10.064;2023-02-13T03:41:53;6.70;99.90
5394;DHT22;2720;52.396;10.064;2023-02-13T03:44:25;6.70;99.90
5394;DHT22;2720;52.396;10.064;2023-02-13T03:46:56;6.70;99.90
5394;DHT22;2720;52.396;10.064;2023-02-13T03:49:27;6.70;99.90
5394;DHT22;2720;52.396;10.064;2023-02-13T03:52:15;6.70;99.90
5394;DHT22;2720;52.396;10.064;2023-02-13T03:54:49;6.70;99.90
5394;DHT22;2720;52.396;10.064;2023-02-13T03:57:35;6.70;99.90
5394;DHT22;2720;52.396;10.064;2023-02-13T04:00:21;6.70;99.90
5394;DHT22;2720;52.396;10.064;2023-02-13T04:02:57;6.80;99.90
5394;DHT22;2720;52.396;10.064;2023-02-13T04:05:28;6.70;99.90
5394;DHT22;2720;52.396;10.064;2023-02-13T04:07:57;6.70;99.90
5394;DHT22;2720;52.396;10.064;2023-02-13T04:10:27;6.70;99.90
5394;DHT22;2720;52.396;10.064;2023-02-13T04:13:02;6.70;99.90
5394;DHT22;2720;52.396;10.064;2023-02-13T04:15:35;6.70;99.90
5394;DHT22;2720;52.396;10.064;2023-02-13T04:18:07;6.70;99.90
5394;DHT22;2720;52.396;10.064;2023-02-13T04:20:36;6.60;99.90
5394;DHT22;2720;52.396;10.064;2023-02-13T04:23:04;6.60;99.90
5394;DHT22;2720;52.396;10.064;2023-02-13T04:25:34;6.70;99.90
5394;DHT22;2720;52.396;10.064;2023-02-13T04:28:02;6.70;99.90
5394;DHT22;2720;52.396;10.064;2023-02-13T04:30:29;6.80;99.90
5394;DHT22;2720;52.396;10.064;2023-02-13T04:32:56;6.80;99.90
5394;DHT22;2720;52.396;10.064;2023-02-13T04:35:23;6.80;99.90
5394;DHT22;2720;52.396;10.064;2023-02-13T04:37:50;6.70;99.90
5394;DHT22;2720;52.396;10.064;2023-02-13T04:40:17;6.70;99.90
5394;DHT22;2720;52.396;10.064;2023-02-13T04:42:47;6.60;99.90
5394;DHT22;2720;52.396;10.064;2023-02-13T04:45:15;6.60;99.90
5394;DHT22;2720;52.396;10.064;2023-02-13T04:47:42;6.60;99.90
5394;DHT22;2720;52.396;10.064;2023-02-13T04:50:09;6.60;99.90
5394;DHT22;2720;52.396;10.064;2023-02-13T04:52:36;6.60;99.90
5394;DHT22;2720;52.396;10.064;2023-02-13T04:55:04;6.60;99.90
5394;DHT22;2720;52.396;10.064;2023-02-13T04:57:31;6.60;99.90
5394;DHT22;2720;52.396;10.064;2023-02-13T04:59:59;6.70;99.90
5394;DHT22;2720;52.396;10.064;2023-02-13T05:02:26;6.70;99.90
5394;DHT22;2720;52.396;10.064;2023-02-13T05:04:53;6.60;99.90
5394;DHT22;2720;52.396;10.064;2023-02-13T05:07:20;6.60;99.90
5394;DHT22;2720;52.396;10.064;2023-02-13T05:09:47;6.60;99.90
5394;DHT22;2720;52.396;10.064;2023-02-13T05:12:14;6.60;99.90
5394;DHT22;2720;52.396;10.064;2023-02-13T05:14:41;6.60;99.90
5394;DHT22;2720;52.396;10.064;2023-02-13T05:17:09;6.60;99.90
5394;DHT22;2720;52.396;10.064;2023-02-13T05:19:36;6.60;99.90
5394;DHT22;2720;52.396;10.064;2023-02-13T05:22:03;6.60;99.90
5394;DHT22;2720;52.396;10.064;2023-02-13T05:24:47;6.60;99.90
5394;DHT22;2720;52.396;10.064;2023-02-13T05:27:14;6.60;99.90
5394;DHT22;2720;52.396;10.064;2023-02-13T05:29:41;6.60;99.90
5394;DHT22;2720;52.396;10.064;2023-02-13T05:32:09;6.60;99.90
5394;DHT22;2720;52.396;10.064;2023-02-13T05:34:36;6.70;99.90
5394;DHT22;2720;52.396;10.064;2023-02-13T05:37:03;6.70;99.90
5394;DHT22;2720;52.396;10.064;2023-02-13T05:39:29;6.70;99.90
5394;DHT22;2720;52.396;10.064;2023-02-13T05:41:56;6.70;99.90
5394;DHT22;2720;52.396;10.064;2023-02-13T05:44:23;6.60;99.90
5394;DHT22;2720;52.396;10.064;2023-02-13T05:46:50;6.60;99.90
5394;DHT22;2720;52.396;10.064;2023-02-13T05:49:19;6.60;99.90
5394;DHT22;2720;52.396;10.064;2023-02-13T05:51:47;6.60;99.90
5394;DHT22;2720;52.396;10.064;2023-02-13T05:54:17;6.60;99.90
5394;DHT22;2720;52.396;10.064;2023-02-13T05:56:44;6.60;99.90
5394;DHT22;2720;52.396;10.064;2023-02-13T05:59:11;6.60;99.90
5394;DHT22;2720;52.396;10.064;2023-02-13T06:01:38;6.50;99.90
5394;DHT22;2720;52.396;10.064;2023-02-13T06:04:05;6.50;99.90
5394;DHT22;2720;52.396;10.064;2023-02-13T06:06:35;6.50;99.90
5394;DHT22;2720;52.396;10.064;2023-02-13T06:09:02;6.60;99.90
5394;DHT22;2720;52.396;10.064;2023-02-13T06:11:29;6.50;99.90
5394;DHT22;2720;52.396;10.064;2023-02-13T06:13:56;6.60;99.90
5394;DHT22;2720;52.396;10.064;2023-02-13T06:16:23;6.70;99.90
5394;DHT22;2720;52.396;10.064;2023-02-13T06:18:50;6.70;99.90
5394;DHT22;2720;52.396;10.064;2023-02-13T06:21:17;6.60;99.90
5394;DHT22;2720;52.396;10.064;2023-02-13T06:23:45;6.70;99.90
5394;DHT22;2720;52.396;10.064;2023-02-13T06:26:12;6.60;99.90
5394;DHT22;2720;52.396;10.064;2023-02-13T06:28:39;6.50;99.90
5394;DHT22;2720;52.396;10.064;2023-02-13T06:31:06;6.50;99.90
5394;DHT22;2720;52.396;10.064;2023-02-13T06:33:33;6.40;99.90
5394;DHT22;2720;52.396;10.064;2023-02-13T06:36:00;6.40;99.90
5394;DHT22;2720;52.396;10.064;2023-02-13T06:38:27;6.40;99.90
5394;DHT22;2720;52.396;10.064;2023-02-13T06:40:59;6.40;99.90
5394;DHT22;2720;52.396;10.064;2023-02-13T06:43:27;6.40;99.90
5394;DHT22;2720;52.396;10.064;2023-02-13T06:45:54;6.40;99.90
5394;DHT22;2720;52.396;10.064;2023-02-13T06:48:21;6.50;99.90
5394;DHT22;2720;52.396;10.064;2023-02-13T06:50:48;6.50;99.90
5394;DHT22;2720;52.396;10.064;2023-02-13T06:53:17;6.50;99.90
5394;DHT22;2720;52.396;10.064;2023-02-13T06:55:44;6.50;99.90
5394;DHT22;2720;52.396;10.064;2023-02-13T06:58:13;6.60;99.90
5394;DHT22;2720;52.396;10.064;2023-02-13T07:00:39;6.60;99.90
5394;DHT22;2720;52.396;10.064;2023-02-13T07:03:06;6.60;99.90
5394;DHT22;2720;52.396;10.064;2023-02-13T07:05:34;6.60;99.90
5394;DHT22;2720;52.396;10.064;2023-02-13T07:08:01;6.60;99.90
5394;DHT22;2720;52.396;10.064;2023-02-13T07:10:28;6.70;99.90
5394;DHT22;2720;52.396;10.064;2023-02-13T07:12:55;6.70;99.90
5394;DHT22;2720;52.396;10.064;2023-02-13T07:15:23;6.70;99.90
5394;DHT22;2720;52.396;10.064;2023-02-13T07:17:55;6.80;99.90
5394;DHT22;2720;52.396;10.064;2023-02-13T07:20:22;6.80;99.90
5394;DHT22;2720;52.396;10.064;2023-02-13T07:22:49;6.80;99.90
5394;DHT22;2720;52.396;10.064;2023-02-13T07:25:16;6.80;99.90
5394;DHT22;2720;52.396;10.064;2023-02-13T07:27:43;6.80;99.90
5394;DHT22;2720;52.396;10.064;2023-02-13T07:30:10;6.80;99.90
5394;DHT22;2720;52.396;10.064;2023-02-13T07:32:40;6.90;99.90
5394;DHT22;2720;52.396;10.064;2023-02-13T07:35:07;7.00;99.90
5394;DHT22;2720;52.396;10.064;2023-02-13T07:37:34;7.00;99.90
5394;DHT22;2720;52.396;10.064;2023-02-13T07:40:01;7.00;99.90
5394;DHT22;2720;52.396;10.064;2023-02-13T07:42:32;7.10;99.90
5394;DHT22;2720;52.396;10.064;2023-02-13T07:44:59;7.10;99.90
5394;DHT22;2720;52.396;10.064;2023-02-13T07:47:26;7.20;99.90
5394;DHT22;2720;52.396;10.064;2023-02-13T07:49:54;7.30;99.90
5394;DHT22;2720;52.396;10.064;2023-02-13T07:52:21;7.30;99.90
5394;DHT22;2720;52.396;10.064;2023-02-13T07:54:48;7.10;99.90
5394;DHT22;2720;52.396;10.064;2023-02-13T07:57:16;7.10;99.90
5394;DHT22;2720;52.396;10.064;2023-02-13T07:59:44;7.00;99.90
5394;DHT22;2720;52.396;10.064;2023-02-13T08:02:11;6.90;99.90
5394;DHT22;2720;52.396;10.064;2023-02-13T08:04:39;7.00;99.90
5394;DHT22;2720;52.396;10.064;2023-02-13T08:07:07;7.00;99.90
5394;DHT22;2720;52.396;10.064;2023-02-13T08:09:34;7.10;99.90
5394;DHT22;2720;52.396;10.064;2023-02-13T08:12:19;7.10;99.90
5394;DHT22;2720;52.396;10.064;2023-02-13T08:14:46;7.10;99.90
5394;DHT22;2720;52.396;10.064;2023-02-13T08:17:13;7.20;99.90
5394;DHT22;2720;52.396;10.064;2023-02-13T08:19:40;7.20;99.90
5394;DHT22;2720;52.396;10.064;2023-02-13T08:22:08;7.30;99.90
5394;DHT22;2720;52.396;10.064;2023-02-13T08:24:35;7.30;99.90
5394;DHT22;2720;52.396;10.064;2023-02-13T08:27:02;7.50;99.90
5394;DHT22;2720;52.396;10.064;2023-02-13T08:29:29;7.40;99.90
5394;DHT22;2720;52.396;10.064;2023-02-13T08:31:56;7.50;99.90
5394;DHT22;2720;52.396;10.064;2023-02-13T08:34:23;7.50;99.90
5394;DHT22;2720;52.396;10.064;2023-02-13T08:36:50;7.70;99.90
5394;DHT22;2720;52.396;10.064;2023-02-13T08:39:19;7.50;99.90
5394;DHT22;2720;52.396;10.064;2023-02-13T08:41:45;7.70;99.90
5394;DHT22;2720;52.396;10.064;2023-02-13T08:44:13;7.70;99.90
5394;DHT22;2720;52.396;10.064;2023-02-13T08:46:40;7.80;99.90
5394;DHT22;2720;52.396;10.064;2023-02-13T08:49:06;7.70;99.90
5394;DHT22;2720;52.396;10.064;2023-02-13T08:51:33;7.70;99.90
5394;DHT22;2720;52.396;10.064;2023-02-13T08:54:00;7.70;99.90
5394;DHT22;2720;52.396;10.064;2023-02-13T08:56:29;7.80;99.90
5394;DHT22;2720;52.396;10.064;2023-02-13T08:58:56;7.90;99.90
5394;DHT22;2720;52.396;10.064;2023-02-13T09:01:23;7.90;99.90
5394;DHT22;2720;52.396;10.064;2023-02-13T09:03:50;7.90;99.90
5394;DHT22;2720;52.396;10.064;2023-02-13T09:06:17;8.00;99.90
5394;DHT22;2720;52.396;10.064;2023-02-13T09:08:44;8.10;99.90
5394;DHT22;2720;52.396;10.064;2023-02-13T09:11:11;8.20;99.90
5394;DHT22;2720;52.396;10.064;2023-02-13T09:13:39;8.20;99.90
5394;DHT22;2720;52.396;10.064;2023-02-13T09:16:06;8.30;99.90
5394;DHT22;2720;52.396;10.064;2023-02-13T09:18:34;8.30;99.90
5394;DHT22;2720;52.396;10.064;2023-02-13T09:21:03;8.40;99.90
5394;DHT22;2720;52.396;10.064;2023-02-13T09:23:31;8.50;99.90
5394;DHT22;2720;52.396;10.064;2023-02-13T09:25:59;8.50;99.90
5394;DHT22;2720;52.396;10.064;2023-02-13T09:28:27;8.50;99.90
5394;DHT22;2720;52.396;10.064;2023-02-13T09:30:56;8.60;99.90
5394;DHT22;2720;52.396;10.064;2023-02-13T09:33:23;8.60;99.90
5394;DHT22;2720;52.396;10.064;2023-02-13T09:35:50;8.70;99.90
5394;DHT22;2720;52.396;10.064;2023-02-13T09:38:17;8.80;99.90
5394;DHT22;2720;52.396;10.064;2023-02-13T09:40:47;9.00;99.90
5394;DHT22;2720;52.396;10.064;2023-02-13T09:43:17;9.00;99.90
5394;DHT22;2720;52.396;10.064;2023-02-13T09:45:46;9.10;99.90
5394;DHT22;2720;52.396;10.064;2023-02-13T09:48:25;9.10;99.90
5394;DHT22;2720;52.396;10.064;2023-02-13T09:50:54;9.00;99.90
5394;DHT22;2720;52.396;10.064;2023-02-13T09:53:23;9.00;99.90
5394;DHT22;2720;52.396;10.064;2023-02-13T09:55:57;9.20;99.90
5394;DHT22;2720;52.396;10.064;2023-02-13T09:58:38;9.30;99.90
5394;DHT22;2720;52.396;10.064;2023-02-13T10:01:17;9.40;99.90
5394;DHT22;2720;52.396;10.064;2023-02-13T10:03:54;9.40;99.90
5394;DHT22;2720;52.396;10.064;2023-02-13T10:06:30;9.40;99.90
5394;DHT22;2720;52.396;10.064;2023-02-13T10:09:05;9.40;99.90
5394;DHT22;2720;52.396;10.064;2023-02-13T10:11:50;9.40;99.90
5394;DHT22;2720;52.396;10.064;2023-02-13T10:14:22;9.30;99.90
5394;DHT22;2720;52.396;10.064;2023-02-13T10:16:53;9.30;99.90
5394;DHT22;2720;52.396;10.064;2023-02-13T10:19:36;9.40;99.90
5394;DHT22;2720;52.396;10.064;2023-02-13T10:22:08;9.50;99.90
5394;DHT22;2720;52.396;10.064;2023-02-13T10:24:39;9.50;99.90
5394;DHT22;2720;52.396;10.064;2023-02-13T10:27:18;9.40;99.90
5394;DHT22;2720;52.396;10.064;2023-02-13T10:29:50;9.50;99.90
5394;DHT22;2720;52.396;10.064;2023-02-13T10:32:55;9.60;99.90
5394;DHT22;2720;52.396;10.064;2023-02-13T10:35:43;9.70;99.90
5394;DHT22;2720;52.396;10.064;2023-02-13T10:38:14;9.60;99.90
5394;DHT22;2720;52.396;10.064;2023-02-13T10:43:29;9.70;99.90
5394;DHT22;2720;52.396;10.064;2023-02-13T10:46:06;9.60;99.90
5394;DHT22;2720;52.396;10.064;2023-02-13T10:48:56;9.70;99.90
5394;DHT22;2720;52.396;10.064;2023-02-13T10:51:31;9.60;99.90
5394;DHT22;2720;52.396;10.064;2023-02-13T10:54:25;9.60;99.90
5394;DHT22;2720;52.396;10.064;2023-02-13T10:56:57;9.70;99.90
5394;DHT22;2720;52.396;10.064;2023-02-13T10:59:45;9.70;99.90
5394;DHT22;2720;52.396;10.064;2023-02-13T11:02:25;9.70;99.90
5394;DHT22;2720;52.396;10.064;2023-02-13T11:04:57;9.90;99.90
5394;DHT22;2720;52.396;10.064;2023-02-13T11:07:27;10.00;99.90
5394;DHT22;2720;52.396;10.064;2023-02-13T11:09:58;10.10;99.90
5394;DHT22;2720;52.396;10.064;2023-02-13T11:12:28;9.80;99.90
5394;DHT22;2720;52.396;10.064;2023-02-13T11:14:58;9.80;99.90
5394;DHT22;2720;52.396;10.064;2023-02-13T11:17:27;9.80;99.90
5394;DHT22;2720;52.396;10.064;2023-02-13T11:19:56;9.90;99.90
5394;DHT22;2720;52.396;10.064;2023-02-13T11:22:31;9.90;99.90
5394;DHT22;2720;52.396;10.064;2023-02-13T11:25:01;10.00;99.90
5394;DHT22;2720;52.396;10.064;2023-02-13T11:27:32;10.00;99.90
5394;DHT22;2720;52.396;10.064;2023-02-13T11:30:00;10.00;99.90
5394;DHT22;2720;52.396;10.064;2023-02-13T11:32:29;9.90;99.90
5394;DHT22;2720;52.396;10.064;2023-02-13T11:34:56;9.90;99.90
5394;DHT22;2720;52.396;10.064;2023-02-13T11:37:28;9.90;99.90
5394;DHT22;2720;52.396;10.064;2023-02-13T11:39:57;9.90;99.90
5394;DHT22;2720;52.396;10.064;2023-02-13T11:42:28;10.00;99.90
5394;DHT22;2720;52.396;10.064;2023-02-13T11:45:02;10.00;99.90
5394;DHT22;2720;52.396;10.064;2023-02-13T11:47:33;10.10;99.90
5394;DHT22;2720;52.396;10.064;2023-02-13T11:50:01;10.10;99.90
5394;DHT22;2720;52.396;10.064;2023-02-13T11:52:31;10.10;99.90
5394;DHT22;2720;52.396;10.064;2023-02-13T11:55:01;10.10;99.90
5394;DHT22;2720;52.396;10.064;2023-02-13T11:57:31;10.10;99.90
5394;DHT22;2720;52.396;10.064;2023-02-13T11:59:59;10.10;99.90
5394;DHT22;2720;52.396;10.064;2023-02-13T12:02:28;10.10;99.90
5394;DHT22;2720;52.396;10.064;2023-02-13T12:05:14;10.30;99.90
5394;DHT22;2720;52.396;10.064;2023-02-13T12:07:45;10.30;99.90
5394;DHT22;2720;52.396;10.064;2023-02-13T12:10:18;10.40;99.90
5394;DHT22;2720;52.396;10.064;2023-02-13T12:12:52;10.40;99.90
5394;DHT22;2720;52.396;10.064;2023-02-13T12:15:22;10.40;99.90
5394;DHT22;2720;52.396;10.064;2023-02-13T12:18:01;10.40;99.90
5394;DHT22;2720;52.396;10.064;2023-02-13T12:20:36;10.40;99.90
5394;DHT22;2720;52.396;10.064;2023-02-13T12:23:16;10.40;99.90
5394;DHT22;2720;52.396;10.064;2023-02-13T12:26:05;10.50;99.90
5394;DHT22;2720;52.396;10.064;2023-02-13T12:28:44;10.50;99.90
5394;DHT22;2720;52.396;10.064;2023-02-13T12:31:31;10.70;99.90
5394;DHT22;2720;52.396;10.064;2023-02-13T12:34:37;10.70;99.90
5394;DHT22;2720;52.396;10.064;2023-02-13T12:37:20;10.90;99.90
5394;DHT22;2720;52.396;10.064;2023-02-13T12:40:01;11.00;99.90
5394;DHT22;2720;52.396;10.064;2023-02-13T12:42:43;11.00;99.90
5394;DHT22;2720;52.396;10.064;2023-02-13T12:45:27;10.90;99.90
5394;DHT22;2720;52.396;10.064;2023-02-13T12:48:08;10.80;99.90
5394;DHT22;2720;52.396;10.064;2023-02-13T12:50:52;10.90;99.90
5394;DHT22;2720;52.396;10.064;2023-02-13T12:53:37;10.80;99.90
5394;DHT22;2720;52.396;10.064;2023-02-13T12:56:19;10.80;99.90
5394;DHT22;2720;52.396;10.064;2023-02-13T12:58:59;10.80;99.90
5394;DHT22;2720;52.396;10.064;2023-02-13T13:01:44;10.70;99.90
5394;DHT22;2720;52.396;10.064;2023-02-13T13:04:21;10.70;99.90
5394;DHT22;2720;52.396;10.064;2023-02-13T13:07:01;10.70;99.90
5394;DHT22;2720;52.396;10.064;2023-02-13T13:09:51;10.70;99.90
5394;DHT22;2720;52.396;10.064;2023-02-13T13:12:28;10.60;99.90
5394;DHT22;2720;52.396;10.064;2023-02-13T13:15:02;10.70;99.90
5394;DHT22;2720;52.396;10.064;2023-02-13T13:17:41;10.70;99.90
5394;DHT22;2720;52.396;10.064;2023-02-13T13:20:36;10.80;99.90
5394;DHT22;2720;52.396;10.064;2023-02-13T13:23:11;10.80;99.90
5394;DHT22;2720;52.396;10.064;2023-02-13T13:25:45;10.80;99.90
5394;DHT22;2720;52.396;10.064;2023-02-13T13:28:18;10.80;99.90
5394;DHT22;2720;52.396;10.064;2023-02-13T13:30:46;10.60;99.90
5394;DHT22;2720;52.396;10.064;2023-02-13T13:33:17;10.60;99.90
5394;DHT22;2720;52.396;10.064;2023-02-13T13:36:06;10.50;99.90
5394;DHT22;2720;52.396;10.064;2023-02-13T13:38:45;10.50;99.90
5394;DHT22;2720;52.396;10.064;2023-02-13T13:41:22;10.40;99.90
5394;DHT22;2720;52.396;10.064;2023-02-13T13:46:53;10.20;99.90
5394;DHT22;2720;52.396;10.064;2023-02-13T13:49:37;10.30;99.90
5394;DHT22;2720;52.396;10.064;2023-02-13T13:54:45;10.20;99.90
5394;DHT22;2720;52.396;10.064;2023-02-13T13:57:16;10.10;99.90
5394;DHT22;2720;52.396;10.064;2023-02-13T14:03:19;10.20;99.90
5394;DHT22;2720;52.396;10.064;2023-02-13T14:06:01;10.30;99.90
5394;DHT22;2720;52.396;10.064;2023-02-13T14:11:37;10.00;99.90
5394;DHT22;2720;52.396;10.064;2023-02-13T14:17:14;10.10;99.90
5394;DHT22;2720;52.396;10.064;2023-02-13T14:19:47;10.10;99.90
5394;DHT22;2720;52.396;10.064;2023-02-13T14:22:32;10.20;99.90
5394;DHT22;2720;52.396;10.064;2023-02-13T14:25:02;10.10;99.90
5394;DHT22;2720;52.396;10.064;2023-02-13T14:27:31;10.10;99.90
5394;DHT22;2720;52.396;10.064;2023-02-13T14:29:59;10.20;99.90
5394;DHT22;2720;52.396;10.064;2023-02-13T14:32:30;10.10;99.90
5394;DHT22;2720;52.396;10.064;2023-02-13T14:35:01;10.20;99.90
5394;DHT22;2720;52.396;10.064;2023-02-13T14:37:34;10.10;99.90
5394;DHT22;2720;52.396;10.064;2023-02-13T14:40:29;10.10;99.90
5394;DHT22;2720;52.396;10.064;2023-02-13T14:43:05;10.20;99.90
5394;DHT22;2720;52.396;10.064;2023-02-13T14:45:45;10.10;99.90
5394;DHT22;2720;52.396;10.064;2023-02-13T14:48:13;9.90;99.90
5394;DHT22;2720;52.396;10.064;2023-02-13T14:50:45;9.80;99.90
5394;DHT22;2720;52.396;10.064;2023-02-13T14:53:19;9.90;99.90
5394;DHT22;2720;52.396;10.064;2023-02-13T14:55:49;9.70;99.90
5394;DHT22;2720;52.396;10.064;2023-02-13T14:58:22;9.70;99.90
5394;DHT22;2720;52.396;10.064;2023-02-13T15:00:53;9.60;99.90
5394;DHT22;2720;52.396;10.064;2023-02-13T15:03:28;9.40;99.90
5394;DHT22;2720;52.396;10.064;2023-02-13T15:06:00;9.50;99.90
5394;DHT22;2720;52.396;10.064;2023-02-13T15:08:32;9.40;99.90
5394;DHT22;2720;52.396;10.064;2023-02-13T15:11:00;9.40;99.90
5394;DHT22;2720;52.396;10.064;2023-02-13T15:13:32;9.20;99.90
5394;DHT22;2720;52.396;10.064;2023-02-13T15:16:02;9.20;99.90
5394;DHT22;2720;52.396;10.064;2023-02-13T15:18:34;9.10;99.90
5394;DHT22;2720;52.396;10.064;2023-02-13T15:21:05;9.00;99.90
5394;DHT22;2720;52.396;10.064;2023-02-13T15:23:32;8.90;99.90
5394;DHT22;2720;52.396;10.064;2023-02-13T15:26:01;8.80;99.90
5394;DHT22;2720;52.396;10.064;2023-02-13T15:28:29;8.70;99.90
5394;DHT22;2720;52.396;10.064;2023-02-13T15:30:59;8.60;99.90
5394;DHT22;2720;52.396;10.064;2023-02-13T15:33:27;8.60;99.90
5394;DHT22;2720;52.396;10.064;2023-02-13T15:35:57;8.40;99.90
5394;DHT22;2720;52.396;10.064;2023-02-13T15:38:28;8.30;99.90
5394;DHT22;2720;52.396;10.064;2023-02-13T15:40:58;8.30;99.90
5394;DHT22;2720;52.396;10.064;2023-02-13T15:43:32;8.20;99.90
5394;DHT22;2720;52.396;10.064;2023-02-13T15:46:02;8.20;99.90
5394;DHT22;2720;52.396;10.064;2023-02-13T15:48:31;8.20;99.90
5394;DHT22;2720;52.396;10.064;2023-02-13T15:50:59;8.10;99.90
5394;DHT22;2720;52.396;10.064;2023-02-13T15:53:28;8.10;99.90
5394;DHT22;2720;52.396;10.064;2023-02-13T15:55:58;8.10;99.90
5394;DHT22;2720;52.396;10.064;2023-02-13T15:58:28;8.10;99.90
5394;DHT22;2720;52.396;10.064;2023-02-13T16:01:00;8.20;99.90
5394;DHT22;2720;52.396;10.064;2023-02-13T16:03:30;8.00;99.90
5394;DHT22;2720;52.396;10.064;2023-02-13T16:05:58;8.00;99.90
5394;DHT22;2720;52.396;10.064;2023-02-13T16:08:31;8.10;99.90
5394;DHT22;2720;52.396;10.064;2023-02-13T16:11:23;8.00;99.90
5394;DHT22;2720;52.396;10.064;2023-02-13T16:14:06;8.00;99.90
5394;DHT22;2720;52.396;10.064;2023-02-13T16:16:47;7.90;99.90
5394;DHT22;2720;52.396;10.064;2023-02-13T16:19:28;7.90;99.90
5394;DHT22;2720;52.396;10.064;2023-02-13T16:22:00;7.80;99.90
5394;DHT22;2720;52.396;10.064;2023-02-13T16:24:30;7.70;99.90
5394;DHT22;2720;52.396;10.064;2023-02-13T16:26:57;7.70;99.90
5394;DHT22;2720;52.396;10.064;2023-02-13T16:29:25;7.70;99.90
5394;DHT22;2720;52.396;10.064;2023-02-13T16:32:02;7.60;99.90
5394;DHT22;2720;52.396;10.064;2023-02-13T16:34:30;7.60;99.90
5394;DHT22;2720;52.396;10.064;2023-02-13T16:36:57;7.50;99.90
5394;DHT22;2720;52.396;10.064;2023-02-13T16:39:27;7.60;99.90
5394;DHT22;2720;52.396;10.064;2023-02-13T16:41:56;7.50;99.90
5394;DHT22;2720;52.396;10.064;2023-02-13T16:44:26;7.60;99.90
5394;DHT22;2720;52.396;10.064;2023-02-13T16:46:55;7.50;99.90
5394;DHT22;2720;52.396;10.064;2023-02-13T16:49:27;7.50;99.90
5394;DHT22;2720;52.396;10.064;2023-02-13T16:51:57;7.40;99.90
5394;DHT22;2720;52.396;10.064;2023-02-13T16:54:32;7.40;99.90
5394;DHT22;2720;52.396;10.064;2023-02-13T16:57:03;7.40;99.90